Frankewing, Tennessee
Current Conditions -  °F | °C
As of 11:15 PM on Sunday 19 Oct 2014 (Local Time) from KFYM Reporting Station
Clear Clear  
Wind Chill: 42°   Ceiling: Unl
Heat Index: 48°   Visibility: 10mi
Dew Point: 43°   Wind: 17mph
Humidity: 82%   Direction: 80°E
Pressure: 30.1"   Gusts: 43mph
Location:  35.19°N, 86.85°W
Report Text: KFYM 200415Z AUTO 08015G37KT 10SM CLR 09/06 A3010 RMK
Loading
Personal Weather Stations






























Interactive Weather Map
Tropical Storm Tracking
New forecast layout! Learn more

10-Day Weather Forecast

Advertisements
Track Severe Weather on mobile